createdAt,value
2023-01-04T00:00:39.596Z,15.77
2023-01-04T00:05:42.599Z,15.90
2023-01-04T00:10:44.246Z,13.27
2023-01-04T00:15:45.815Z,13.82
2023-01-04T00:20:50.758Z,13.32
2023-01-04T00:25:52.363Z,13.77
2023-01-04T00:30:54.109Z,12.85
2023-01-04T00:36:02.481Z,13.82
2023-01-04T00:41:05.533Z,14.00
2023-01-04T00:46:07.210Z,13.73
2023-01-04T00:51:16.187Z,13.90
2023-01-04T00:56:17.738Z,13.77
2023-01-04T01:01:19.356Z,13.93
2023-01-04T01:06:22.748Z,14.40
2023-01-04T01:11:24.951Z,16.02
2023-01-04T01:16:53.103Z,15.57
2023-01-04T01:21:49.559Z,17.08
2023-01-04T01:26:51.228Z,17.08
2023-01-04T01:31:53.344Z,16.65
2023-01-04T01:36:56.421Z,17.08
2023-01-04T01:41:58.995Z,15.52
2023-01-04T01:47:01.353Z,14.32
2023-01-04T01:52:08.965Z,14.52
2023-01-04T01:57:16.822Z,15.88
2023-01-04T02:02:18.613Z,14.80
2023-01-04T02:07:26.487Z,15.45
2023-01-04T02:17:39.141Z,13.45
2023-01-04T02:23:14.304Z,13.75
2023-01-04T02:28:29.447Z,14.70
2023-01-04T02:33:44.372Z,14.32
2023-01-04T02:38:58.162Z,13.50
2023-01-04T02:44:11.554Z,12.45
2023-01-04T02:49:14.954Z,13.00
2023-01-04T02:54:21.796Z,12.35
2023-01-04T02:59:50.872Z,12.53
2023-01-04T03:05:04.859Z,14.32
2023-01-04T03:10:12.664Z,14.38
2023-01-04T03:15:18.980Z,14.60
2023-01-04T03:20:24.315Z,14.18
2023-01-04T03:25:31.301Z,14.40
2023-01-04T03:30:39.046Z,12.70
2023-01-04T03:40:50.233Z,13.43
2023-01-04T03:45:56.283Z,14.60
2023-01-04T03:51:05.773Z,14.77
2023-01-04T03:56:09.177Z,14.05
2023-01-04T04:01:12.476Z,12.18
2023-01-04T04:06:15.654Z,12.23
2023-01-04T04:11:17.315Z,12.25
2023-01-04T04:16:18.996Z,10.80
2023-01-04T04:21:22.055Z,10.73
2023-01-04T04:26:24.140Z,10.23
2023-01-04T04:31:37.860Z,9.77
2023-01-04T04:36:40.801Z,7.95
2023-01-04T04:41:42.433Z,8.13
2023-01-04T04:46:45.047Z,7.97
2023-01-04T04:51:49.045Z,8.02
2023-01-04T04:56:50.655Z,8.95
2023-01-04T05:01:52.365Z,8.80
2023-01-04T05:06:55.293Z,9.65
2023-01-04T05:11:56.924Z,9.07
2023-01-04T05:16:58.627Z,9.65
2023-01-04T05:22:01.714Z,10.20
2023-01-04T05:27:03.397Z,11.15
2023-01-04T05:32:05.721Z,11.65
2023-01-04T05:37:09.789Z,12.45
2023-01-04T05:42:11.380Z,12.15
2023-01-04T05:47:15.033Z,13.50
2023-01-04T05:52:18.969Z,12.48
2023-01-04T05:57:20.578Z,14.10
2023-01-04T06:02:29.283Z,15.27
2023-01-04T06:07:32.761Z,13.18
2023-01-04T06:12:34.555Z,14.15
2023-01-04T06:17:38.478Z,14.40
2023-01-04T06:22:41.596Z,13.95
2023-01-04T06:27:43.210Z,13.00
2023-01-04T06:32:45.980Z,14.30
2023-01-04T06:37:52.062Z,14.95
2023-01-04T06:42:53.660Z,14.10
2023-01-04T06:47:56.242Z,13.40
2023-01-04T06:52:59.180Z,13.57
2023-01-04T06:58:01.053Z,15.18
2023-01-04T07:03:14.526Z,13.45
2023-01-04T07:08:19.011Z,13.50
2023-01-04T07:13:20.624Z,12.80
2023-01-04T07:18:22.430Z,12.65
2023-01-04T07:23:25.337Z,12.70
2023-01-04T07:28:26.964Z,12.82
2023-01-04T07:33:28.550Z,12.88
2023-01-04T07:38:31.608Z,12.25
2023-01-04T07:43:33.195Z,11.43
2023-01-04T07:48:34.783Z,11.55
2023-01-04T07:53:37.772Z,11.70
2023-01-04T07:58:39.502Z,12.00
2023-01-04T08:03:41.400Z,10.30
2023-01-04T08:08:44.442Z,9.48
2023-01-04T08:13:46.107Z,9.30
2023-01-04T08:18:48.273Z,10.27
2023-01-04T08:23:52.107Z,10.30
2023-01-04T08:28:54.276Z,9.30
2023-01-04T08:33:56.529Z,8.65
2023-01-04T08:39:01.999Z,9.40
2023-01-04T08:44:06.015Z,8.95
2023-01-04T08:49:08.931Z,9.45
2023-01-04T08:54:12.973Z,9.45
2023-01-04T08:59:15.595Z,9.15
2023-01-04T09:04:17.272Z,8.65
2023-01-04T09:09:20.298Z,8.52
2023-01-04T09:14:21.891Z,9.23
2023-01-04T09:19:23.503Z,10.02
2023-01-04T09:24:26.464Z,16.75
2023-01-04T09:29:28.047Z,10.43
2023-01-04T09:34:29.643Z,11.43
2023-01-04T09:39:32.553Z,10.38
2023-01-04T09:50:05.674Z,9.40
2023-01-04T09:55:37.295Z,9.87
2023-01-04T10:05:45.438Z,10.02
2023-01-04T10:10:57.247Z,8.75
2023-01-04T10:16:10.919Z,9.45
2023-01-04T10:21:33.445Z,8.02
2023-01-04T10:26:42.038Z,7.07
2023-01-04T10:36:48.677Z,7.35
2023-01-04T10:41:55.659Z,6.85
2023-01-04T10:47:05.611Z,6.80
2023-01-04T10:52:12.009Z,6.68
2023-01-04T10:57:23.344Z,6.22
2023-01-04T11:02:35.348Z,5.38
2023-01-04T11:07:46.120Z,4.65
2023-01-04T11:12:49.332Z,5.03
2023-01-04T11:17:54.634Z,3.85
2023-01-04T11:23:05.117Z,5.22
2023-01-04T11:28:15.987Z,5.30
2023-01-04T11:33:19.575Z,5.03
2023-01-04T11:38:23.162Z,4.38
2023-01-04T11:43:27.572Z,4.95
2023-01-04T11:48:38.505Z,4.18
2023-01-04T11:53:40.124Z,4.18
2023-01-04T11:58:45.093Z,5.03
2023-01-04T12:03:46.867Z,4.35
2023-01-04T12:08:48.794Z,3.95
2023-01-04T12:13:51.923Z,4.10
2023-01-04T12:18:53.992Z,3.92
2023-01-04T12:23:56.103Z,4.13
2023-01-04T12:29:31.363Z,4.20
2023-01-04T12:34:42.178Z,4.00
2023-01-04T12:39:45.380Z,3.83
2023-01-04T12:45:21.451Z,3.25
2023-01-04T12:50:24.694Z,2.90
2023-01-04T12:55:51.236Z,3.53
2023-01-04T13:01:25.288Z,2.75
2023-01-04T13:06:31.119Z,2.65
2023-01-04T13:12:04.681Z,2.83
2023-01-04T13:17:17.221Z,2.50
2023-01-04T13:22:29.521Z,2.78
2023-01-04T13:27:31.458Z,2.15
2023-01-04T13:32:35.579Z,3.13
2023-01-04T13:37:46.927Z,2.92
2023-01-04T13:42:50.604Z,5.28
2023-01-04T13:47:56.967Z,3.28
2023-01-04T13:53:06.991Z,3.80
2023-01-04T13:58:17.421Z,3.58
2023-01-04T14:03:37.567Z,3.80
2023-01-04T14:08:44.926Z,4.28
2023-01-04T14:13:47.992Z,4.35
2023-01-04T14:18:49.546Z,3.97
2023-01-04T14:23:52.499Z,4.97
2023-01-04T14:28:54.017Z,9.40
2023-01-04T14:33:56.054Z,6.00
2023-01-04T14:39:09.037Z,5.90
2023-01-04T14:44:13.373Z,5.68
2023-01-04T14:49:15.546Z,5.28
2023-01-04T14:54:25.342Z,5.38
2023-01-04T14:59:27.290Z,5.20
2023-01-04T15:04:29.216Z,4.97
2023-01-04T15:09:32.103Z,4.90
2023-01-04T15:14:33.709Z,5.03
2023-01-04T15:19:37.936Z,5.00
2023-01-04T15:24:41.352Z,4.22
2023-01-04T15:29:42.980Z,4.97
2023-01-04T15:34:47.012Z,4.50
2023-01-04T15:39:50.102Z,4.82
2023-01-04T15:44:51.869Z,4.60
2023-01-04T15:49:53.500Z,5.35
2023-01-04T15:54:56.398Z,4.22
2023-01-04T15:59:58.210Z,3.67
2023-01-04T16:04:59.819Z,3.33
2023-01-04T16:10:03.102Z,3.80
2023-01-04T16:15:05.759Z,3.30
2023-01-04T16:20:08.558Z,3.47
2023-01-04T16:25:12.528Z,3.85
2023-01-04T16:30:14.759Z,2.88
2023-01-04T16:35:16.759Z,3.67
2023-01-04T16:40:19.872Z,3.28
2023-01-04T16:45:21.441Z,7.45
2023-01-04T16:50:23.097Z,3.22
2023-01-04T16:55:26.051Z,2.97
2023-01-04T17:00:27.700Z,3.22
2023-01-04T17:05:29.283Z,3.10
2023-01-04T17:10:33.548Z,2.55
2023-01-04T17:15:43.787Z,2.80
2023-01-04T17:20:52.973Z,2.58
2023-01-04T17:26:00.569Z,2.70
2023-01-04T17:31:04.777Z,2.72
2023-01-04T17:36:08.772Z,2.05
2023-01-04T17:41:13.419Z,2.13
2023-01-04T17:46:22.529Z,1.98
2023-01-04T17:51:25.430Z,2.13
2023-01-04T17:56:29.950Z,1.92
2023-01-04T18:01:31.617Z,2.28
2023-01-04T18:06:35.865Z,3.00
2023-01-04T18:11:38.854Z,2.40
2023-01-04T18:16:40.479Z,2.72
2023-01-04T18:21:42.198Z,1.80
2023-01-04T18:32:06.902Z,1.98
2023-01-04T18:37:09.994Z,2.28
2023-01-04T18:42:12.971Z,2.10
2023-01-04T18:47:14.769Z,2.10
2023-01-04T18:52:16.870Z,1.50
2023-01-04T18:57:19.877Z,1.95
2023-01-04T19:02:22.671Z,2.53
2023-01-04T19:07:25.001Z,1.67
2023-01-04T19:12:27.947Z,1.80
2023-01-04T19:17:29.512Z,2.00
2023-01-04T19:22:32.070Z,1.65
2023-01-04T19:27:35.238Z,1.77
2023-01-04T19:32:36.887Z,1.77
2023-01-04T19:37:38.439Z,2.10
2023-01-04T19:42:41.564Z,2.55
2023-01-04T19:47:43.778Z,2.85
2023-01-04T19:52:45.861Z,1.80
2023-01-04T19:57:48.852Z,2.35
2023-01-04T20:02:50.759Z,2.92
2023-01-04T20:07:52.401Z,2.70
2023-01-04T20:12:55.587Z,2.00
2023-01-04T20:17:57.228Z,1.80
2023-01-04T20:22:58.909Z,2.28
2023-01-04T20:28:01.984Z,2.50
2023-01-04T20:33:03.839Z,2.67
2023-01-04T20:38:05.865Z,2.80
2023-01-04T20:43:09.211Z,2.53
2023-01-04T20:48:11.289Z,2.45
2023-01-04T20:53:12.966Z,2.90
2023-01-04T20:58:16.684Z,1.95
2023-01-04T21:03:18.384Z,2.15
2023-01-04T21:08:20.214Z,1.70
2023-01-04T21:13:23.281Z,1.55
2023-01-04T21:18:25.994Z,1.00
2023-01-04T21:23:27.579Z,1.10
2023-01-04T21:28:30.555Z,1.08
2023-01-04T21:33:32.224Z,1.00
2023-01-04T21:38:33.854Z,0.90
2023-01-04T21:43:37.118Z,0.80
2023-01-04T21:48:38.929Z,1.63
2023-01-04T21:53:41.509Z,3.47
2023-01-04T21:58:45.254Z,0.90
2023-01-04T22:03:47.125Z,0.90
2023-01-04T22:08:48.906Z,0.90
2023-01-04T22:13:51.965Z,0.70
2023-01-04T22:18:53.551Z,1.00
2023-01-04T22:23:55.164Z,0.60
2023-01-04T22:28:58.162Z,0.90
2023-01-04T22:34:00.004Z,0.82
2023-01-04T22:39:01.568Z,0.60
2023-01-04T22:44:05.839Z,0.77
2023-01-04T22:49:07.389Z,0.98
2023-01-04T22:54:10.016Z,1.30
2023-01-04T22:59:13.016Z,0.88
2023-01-04T23:04:16.697Z,1.00
2023-01-04T23:09:19.071Z,0.98
2023-01-04T23:14:22.086Z,1.20
2023-01-04T23:19:23.843Z,1.60
2023-01-04T23:24:25.694Z,1.63
2023-01-04T23:29:29.557Z,1.90
2023-01-04T23:34:31.252Z,1.88
2023-01-04T23:39:32.826Z,1.73
2023-01-04T23:44:38.733Z,1.95
2023-01-04T23:49:41.632Z,1.90
2023-01-04T23:54:43.253Z,2.10
2023-01-04T23:59:46.148Z,1.33
